Time;durP1;ratioP1;P1;durP2;ratioP2;P2;SDS_P1;SDS_P2;PMS_P1;PMS_P2;Temp;Humidity;BMP_temperature;BMP_pressure;BME280_temperature;BME280_humidity;BME280_pressure;Samples;Min_cycle;Max_cycle;Signal;HPM_P1;HPM_P2
2024/04/18 08:24:04;;;;;;;1.02;0.90;;;;;;;;;;5281163;27;20060;-88
2024/04/18 08:26:30;;;;;;;2.10;1.10;;;;;;;;;;5254735;27;19997;-90
2024/04/18 08:28:55;;;;;;;0.90;0.90;;;;;;;;;;5313142;27;20002;-90
2024/04/18 08:31:21;;;;;;;1.00;0.90;;;;;;;;;;5312455;26;20003;-86
2024/04/18 08:33:48;;;;;;;1.90;1.40;;;;;;;;;;5312109;27;20026;-84
2024/04/18 08:36:14;;;;;;;1.25;1.10;;;;;;;;;;5312338;27;20004;-85
2024/04/18 08:38:41;;;;;;;2.15;1.13;;;;;;;;;;5312373;27;19994;-86
2024/04/18 08:41:12;;;;;;;1.10;1.00;;;;;;;;;;5312377;26;20335;-85
2024/04/18 08:43:39;;;;;;;1.15;1.02;;;;;;;;;;5282677;27;20463;-86
2024/04/18 08:46:07;;;;;;;0.95;0.95;;;;;;;;;;5312226;27;20425;-84
2024/04/18 08:48:34;;;;;;;1.30;1.00;;;;;;;;;;5284098;27;20444;-84
2024/04/18 08:51:00;;;;;;;1.40;1.20;;;;;;;;;;5315175;26;20041;-84
2024/04/18 08:53:26;;;;;;;0.95;0.80;;;;;;;;;;5315285;27;20005;-84
2024/04/18 08:55:56;;;;;;;4.03;1.20;;;;;;;;;;5315352;27;19993;-84
2024/04/18 08:58:22;;;;;;;1.65;1.23;;;;;;;;;;5315052;27;19994;-85
2024/04/18 09:00:48;;;;;;;1.13;0.90;;;;;;;;;;5315321;26;20070;-89
2024/04/18 09:03:14;;;;;;;0.80;0.80;;;;;;;;;;5315375;27;20020;-84
2024/04/18 09:05:41;;;;;;;3.08;1.20;;;;;;;;;;5315078;27;19998;-85
2024/04/18 09:08:12;;;;;;;1.55;1.00;;;;;;;;;;5285055;27;19997;-84
2024/04/18 09:10:37;;;;;;;1.20;1.10;;;;;;;;;;5315152;26;20004;-84
2024/04/18 09:13:03;;;;;;;0.93;0.93;;;;;;;;;;5315345;27;20340;-84
2024/04/18 09:15:30;;;;;;;1.65;0.88;;;;;;;;;;5314936;27;20005;-85
2024/04/18 09:18:03;;;;;;;1.88;0.95;;;;;;;;;;5315048;27;20050;-84
2024/04/18 09:20:33;;;;;;;1.23;1.13;;;;;;;;;;5315067;26;20002;-85
2024/04/18 09:22:59;;;;;;;1.27;1.17;;;;;;;;;;5315137;27;20006;-84
2024/04/18 09:25:24;;;;;;;1.00;1.00;;;;;;;;;;5284765;27;20012;-84
2024/04/18 09:27:50;;;;;;;3.15;1.20;;;;;;;;;;5284605;27;20490;-84
2024/04/18 09:30:15;;;;;;;1.30;1.20;;;;;;;;;;5315057;26;20459;-85
2024/04/18 09:32:41;;;;;;;1.90;1.15;;;;;;;;;;5284796;27;20497;-85
2024/04/18 09:35:08;;;;;;;1.10;1.00;;;;;;;;;;5314788;27;19997;-85
2024/04/18 09:37:36;;;;;;;1.30;1.20;;;;;;;;;;5315060;27;20002;-84
2024/04/18 09:40:04;;;;;;;1.48;1.15;;;;;;;;;;5314666;26;20031;-84
2024/04/18 09:42:46;;;;;;;1.20;1.10;;;;;;;;;;5314838;27;19997;-84
2024/04/18 09:45:16;;;;;;;1.15;1.05;;;;;;;;;;5314661;27;20008;-87
2024/04/18 09:47:44;;;;;;;1.30;1.20;;;;;;;;;;5314843;27;20002;-87
2024/04/18 09:50:11;;;;;;;1.75;0.88;;;;;;;;;;5314415;26;20465;-84
2024/04/18 09:52:36;;;;;;;1.45;1.08;;;;;;;;;;5314787;27;19997;-84
2024/04/18 09:55:02;;;;;;;1.08;0.90;;;;;;;;;;5314381;27;20015;-84
2024/04/18 09:57:29;;;;;;;1.67;0.98;;;;;;;;;;5314526;27;20010;-84
2024/04/18 09:59:55;;;;;;;1.10;1.10;;;;;;;;;;5314016;26;20332;-85
2024/04/18 10:02:21;;;;;;;1.58;1.10;;;;;;;;;;5284169;27;20001;-83
2024/04/18 10:04:47;;;;;;;1.10;1.10;;;;;;;;;;5314352;27;20002;-84
2024/04/18 10:07:15;;;;;;;2.67;1.30;;;;;;;;;;5314667;27;20017;-83
2024/04/18 10:09:43;;;;;;;0.90;0.90;;;;;;;;;;5283921;26;20002;-85
2024/04/18 10:12:09;;;;;;;2.25;1.13;;;;;;;;;;5314366;27;20450;-84
2024/04/18 10:14:38;;;;;;;1.65;1.20;;;;;;;;;;5314183;27;20352;-84
2024/04/18 10:17:04;;;;;;;1.67;1.20;;;;;;;;;;5314543;27;20439;-83
2024/04/18 10:19:31;;;;;;;1.40;1.30;;;;;;;;;;5283777;26;20002;-83
2024/04/18 10:21:57;;;;;;;1.50;1.40;;;;;;;;;;5283959;27;20004;-84
2024/04/18 10:24:30;;;;;;;3.50;1.60;;;;;;;;;;5314277;27;20008;-83
2024/04/18 10:27:01;;;;;;;4.93;1.92;;;;;;;;;;5283886;27;20408;-84
2024/04/18 10:29:27;;;;;;;1.30;1.00;;;;;;;;;;5314275;27;20375;-85
2024/04/18 10:32:14;;;;;;;1.38;1.15;;;;;;;;;;5314645;27;20009;-82
2024/04/18 10:34:41;;;;;;;5.78;1.20;;;;;;;;;;5283968;27;20041;-84
2024/04/18 10:37:06;;;;;;;2.45;1.10;;;;;;;;;;5284032;27;20327;-84
2024/04/18 10:39:37;;;;;;;1.25;0.93;;;;;;;;;;5313957;26;20001;-84
2024/04/18 10:42:08;;;;;;;1.27;1.20;;;;;;;;;;5314428;27;20140;-83
2024/04/18 10:44:33;;;;;;;1.42;1.33;;;;;;;;;;5314065;27;20457;-83
2024/04/18 10:46:59;;;;;;;0.75;0.75;;;;;;;;;;5314014;27;20009;-82
2024/04/18 10:49:25;;;;;;;1.67;1.02;;;;;;;;;;5314010;27;19998;-82
2024/04/18 10:51:50;;;;;;;1.10;0.80;;;;;;;;;;5313945;26;20002;-83
2024/04/18 10:54:17;;;;;;;1.52;1.10;;;;;;;;;;5313818;27;20002;-84
2024/04/18 10:56:43;;;;;;;1.30;1.20;;;;;;;;;;5314048;27;20009;-82
2024/04/18 10:59:08;;;;;;;2.95;1.00;;;;;;;;;;5313780;27;20009;-82
2024/04/18 11:01:37;;;;;;;0.98;0.90;;;;;;;;;;5313731;26;20002;-82
2024/04/18 11:04:03;;;;;;;1.08;1.08;;;;;;;;;;5313810;27;19997;-82
2024/04/18 11:06:29;;;;;;;2.97;1.25;;;;;;;;;;5313645;27;20339;-82
2024/04/18 11:08:55;;;;;;;1.02;1.00;;;;;;;;;;5313876;27;20073;-82
2024/04/18 11:11:26;;;;;;;1.33;0.75;;;;;;;;;;5312296;26;20416;-81
2024/04/18 11:13:54;;;;;;;0.88;0.88;;;;;;;;;;5313676;27;20008;-82
2024/04/18 11:16:20;;;;;;;1.10;1.00;;;;;;;;;;5313732;27;20005;-82
2024/04/18 11:18:45;;;;;;;1.00;0.90;;;;;;;;;;5313529;27;19997;-82
2024/04/18 11:21:14;;;;;;;1.15;0.90;;;;;;;;;;5313593;26;20005;-82
2024/04/18 11:23:39;;;;;;;2.10;1.00;;;;;;;;;;5313129;27;20406;-82
2024/04/18 11:26:05;;;;;;;1.38;0.85;;;;;;;;;;5313465;27;20044;-82
2024/04/18 11:28:31;;;;;;;1.17;1.00;;;;;;;;;;5313465;27;20053;-82
2024/04/18 11:30:57;;;;;;;0.95;0.95;;;;;;;;;;5313417;26;20071;-82
2024/04/18 11:33:23;;;;;;;1.55;0.77;;;;;;;;;;5313271;27;20011;-82
2024/04/18 11:35:50;;;;;;;1.15;0.82;;;;;;;;;;5313270;27;20001;-82
2024/04/18 11:38:18;;;;;;;1.55;0.90;;;;;;;;;;5313231;27;20010;-82
2024/04/18 11:40:44;;;;;;;1.77;1.15;;;;;;;;;;5313296;26;20530;-82
2024/04/18 11:43:09;;;;;;;0.85;0.85;;;;;;;;;;5312082;27;20013;-81
2024/04/18 11:45:36;;;;;;;1.20;1.00;;;;;;;;;;5313345;27;20075;-81
2024/04/18 11:48:01;;;;;;;1.15;1.05;;;;;;;;;;5283027;27;20020;-82
2024/04/18 18:34:49;;;;;;;2.45;1.73;;;;;;;;;;5399607;21;20025;-81
2024/04/18 18:37:15;;;;;;;1.77;1.63;;;;;;;;;;5246457;27;20002;-81
2024/04/18 18:39:42;;;;;;;5.57;2.47;;;;;;;;;;5246421;27;20070;-82
2024/04/18 18:42:07;;;;;;;2.90;1.92;;;;;;;;;;5229067;27;19999;-81
2024/04/18 18:44:33;;;;;;;4.15;2.40;;;;;;;;;;5213202;27;20004;-82
2024/04/18 18:46:59;;;;;;;3.08;1.70;;;;;;;;;;5213297;27;20074;-82
2024/04/18 18:49:25;;;;;;;2.05;1.45;;;;;;;;;;5213061;27;20004;-83
2024/04/18 18:51:51;;;;;;;2.10;1.90;;;;;;;;;;5212703;27;20015;-81
2024/04/18 18:54:17;;;;;;;2.33;1.60;;;;;;;;;;5212984;27;20014;-82
2024/04/18 18:56:42;;;;;;;1.55;1.40;;;;;;;;;;5212975;27;20000;-82
2024/04/18 18:59:08;;;;;;;1.60;1.25;;;;;;;;;;5212882;27;20443;-84
